createdAt,value
2018-04-18T00:02:11.847Z,6.67
2018-04-18T00:04:38.132Z,7.10
2018-04-18T00:07:04.405Z,6.90
2018-04-18T00:09:31.533Z,7.90
2018-04-18T00:11:57.833Z,6.67
2018-04-18T00:14:23.971Z,7.40
2018-04-18T00:16:50.895Z,6.33
2018-04-18T00:19:17.114Z,7.40
2018-04-18T00:21:44.410Z,7.17
2018-04-18T00:24:10.661Z,7.23
2018-04-18T00:26:36.904Z,7.73
2018-04-18T00:29:03.132Z,7.37
2018-04-18T00:31:29.324Z,7.50
2018-04-18T00:33:56.003Z,7.20
2018-04-18T00:36:24.073Z,7.47
2018-04-18T00:38:50.967Z,6.90
2018-04-18T00:41:17.177Z,7.37
2018-04-18T00:43:43.444Z,6.67
2018-04-18T00:46:10.437Z,7.00
2018-04-18T00:48:37.493Z,6.80
2018-04-18T00:51:04.231Z,7.17
2018-04-18T00:53:30.503Z,7.33
2018-04-18T00:55:56.734Z,6.77
2018-04-18T00:58:23.499Z,6.67
2018-04-18T01:00:49.716Z,6.70
2018-04-18T01:03:15.933Z,7.13
2018-04-18T01:05:42.088Z,7.10
2018-04-18T01:08:08.312Z,7.03
2018-04-18T01:10:34.900Z,6.93
2018-04-18T01:13:01.088Z,7.03
2018-04-18T01:15:27.256Z,6.70
2018-04-18T01:17:53.477Z,6.83
2018-04-18T01:20:20.302Z,7.27
2018-04-18T01:22:46.526Z,7.40
2018-04-18T01:25:12.794Z,7.23
2018-04-18T01:27:38.999Z,6.47
2018-04-18T01:30:05.316Z,6.90
2018-04-18T01:32:31.568Z,6.07
2018-04-18T01:34:58.302Z,6.30
2018-04-18T01:37:26.081Z,6.47
2018-04-18T01:39:52.620Z,7.30
2018-04-18T01:42:18.931Z,6.23
2018-04-18T01:44:45.265Z,7.20
2018-04-18T01:47:12.048Z,6.00
2018-04-18T01:49:38.431Z,6.83
2018-04-18T01:52:04.638Z,7.07
2018-04-18T01:54:30.889Z,6.33
2018-04-18T01:56:57.123Z,7.00
2018-04-18T01:59:23.836Z,6.20
2018-04-18T02:01:51.749Z,6.50
2018-04-18T02:04:18.733Z,6.73
2018-04-18T02:06:44.962Z,7.63
2018-04-18T02:09:11.217Z,7.00
2018-04-18T02:11:37.700Z,6.97
2018-04-18T02:14:05.357Z,7.07
2018-04-18T02:16:31.601Z,7.20
2018-04-18T02:18:58.149Z,7.13
2018-04-18T02:21:25.237Z,6.97
2018-04-18T02:23:52.120Z,6.43
2018-04-18T02:26:18.988Z,6.97
2018-04-18T02:28:46.547Z,7.60
2018-04-18T02:31:13.153Z,6.90
2018-04-18T02:33:40.356Z,7.27
2018-04-18T02:36:07.542Z,7.63
2018-04-18T02:38:33.822Z,7.30
2018-04-18T02:41:00.817Z,6.67
2018-04-18T02:43:27.005Z,6.63
2018-04-18T02:45:53.729Z,6.73
2018-04-18T02:48:20.727Z,6.57
2018-04-18T02:50:47.095Z,6.93
2018-04-18T02:53:13.215Z,8.10
2018-04-18T02:55:38.988Z,7.20
2018-04-18T02:58:04.724Z,7.40
2018-04-18T03:00:30.482Z,7.63
2018-04-18T03:02:56.212Z,6.93
2018-04-18T03:05:22.065Z,6.80
2018-04-18T03:07:47.798Z,6.83
2018-04-18T03:10:13.541Z,6.57
2018-04-18T03:12:39.270Z,7.00
2018-04-18T03:15:05.036Z,6.87
2018-04-18T03:17:30.812Z,7.30
2018-04-18T03:19:56.541Z,7.60
2018-04-18T03:22:22.286Z,7.43
2018-04-18T03:24:54.990Z,6.60
2018-04-18T03:27:20.731Z,6.93
2018-04-18T03:29:46.464Z,7.17
2018-04-18T03:32:12.227Z,7.20
2018-04-18T03:34:37.964Z,6.93
2018-04-18T03:37:03.725Z,6.67
2018-04-18T03:39:29.465Z,7.60
2018-04-18T03:41:55.213Z,7.50
2018-04-18T03:44:20.965Z,7.80
2018-04-18T03:46:46.721Z,7.93
2018-04-18T03:49:12.468Z,7.33
2018-04-18T03:51:38.216Z,7.33
2018-04-18T03:54:03.960Z,7.20
2018-04-18T03:56:29.704Z,7.53
2018-04-18T03:58:55.439Z,7.63
2018-04-18T04:01:21.219Z,8.47
2018-04-18T04:03:46.952Z,9.00
2018-04-18T04:06:12.708Z,7.63
2018-04-18T04:08:38.463Z,8.67
2018-04-18T04:11:04.221Z,8.93
2018-04-18T04:13:29.963Z,8.30
2018-04-18T04:15:55.714Z,8.70
2018-04-18T04:18:33.952Z,9.17
2018-04-18T04:21:12.194Z,10.33
2018-04-18T04:23:50.304Z,9.50
2018-04-18T04:26:16.076Z,9.70
2018-04-18T04:28:42.609Z,9.68
2018-04-18T04:31:08.364Z,10.33
2018-04-18T04:33:34.113Z,10.10
2018-04-18T04:35:59.895Z,10.00
2018-04-18T04:38:25.640Z,9.13
2018-04-18T04:40:51.384Z,10.00
2018-04-18T04:43:17.122Z,10.00
2018-04-18T04:45:42.884Z,9.77
2018-04-18T04:48:08.634Z,9.77
2018-04-18T04:50:34.396Z,10.03
2018-04-18T04:53:00.145Z,9.73
2018-04-18T04:55:25.872Z,10.73
2018-04-18T04:57:51.612Z,10.27
2018-04-18T05:00:17.353Z,10.97
2018-04-18T05:02:43.105Z,11.13
2018-04-18T05:05:08.846Z,11.23
2018-04-18T05:07:34.632Z,11.80
2018-04-18T05:10:00.389Z,12.30
2018-04-18T05:12:26.141Z,12.93
2018-04-18T05:14:51.864Z,12.60
2018-04-18T05:17:17.613Z,14.20
2018-04-18T05:19:43.348Z,17.13
2018-04-18T05:22:09.109Z,20.67
2018-04-18T05:24:34.861Z,18.43
2018-04-18T05:27:00.619Z,15.50
2018-04-18T05:29:26.366Z,15.07
2018-04-18T05:31:52.116Z,14.73
2018-04-18T05:34:17.848Z,14.03
2018-04-18T05:36:43.595Z,13.67
2018-04-18T05:39:09.344Z,13.97
2018-04-18T05:41:35.095Z,13.77
2018-04-18T05:44:00.827Z,13.27
2018-04-18T05:46:26.570Z,15.40
2018-04-18T05:48:52.315Z,13.97
2018-04-18T05:51:18.055Z,13.43
2018-04-18T05:53:43.815Z,14.33
2018-04-18T05:56:09.553Z,13.47
2018-04-18T05:58:35.327Z,13.80
2018-04-18T06:01:01.072Z,13.57
2018-04-18T06:03:26.821Z,13.80
2018-04-18T06:05:52.555Z,13.40
2018-04-18T06:08:18.317Z,13.30
2018-04-18T06:10:44.059Z,14.07
2018-04-18T06:13:09.816Z,14.50
2018-04-18T06:15:35.560Z,14.50
2018-04-18T06:18:01.316Z,14.07
2018-04-18T06:20:27.058Z,14.57
2018-04-18T06:22:52.812Z,14.67
2018-04-18T06:25:18.659Z,15.53
2018-04-18T06:27:44.404Z,15.37
2018-04-18T06:30:10.157Z,15.93
2018-04-18T06:32:35.895Z,16.57
2018-04-18T06:35:01.636Z,16.40
2018-04-18T06:37:27.425Z,16.93
2018-04-18T06:39:53.172Z,18.20
2018-04-18T06:42:18.925Z,17.70
2018-04-18T06:44:44.665Z,18.03
2018-04-18T06:47:10.412Z,19.93
2018-04-18T06:49:36.165Z,19.37
2018-04-18T06:52:01.904Z,19.43
2018-04-18T06:54:27.653Z,18.83
2018-04-18T06:56:53.395Z,18.47
2018-04-18T06:59:19.152Z,18.00
2018-04-18T07:01:44.888Z,18.63
2018-04-18T07:04:10.643Z,18.97
2018-04-18T07:06:36.376Z,18.93
2018-04-18T07:09:02.138Z,19.50
2018-04-18T07:11:27.872Z,19.57
2018-04-18T07:13:53.626Z,18.43
2018-04-18T07:16:19.356Z,19.07
2018-04-18T07:18:45.102Z,19.27
2018-04-18T07:21:10.846Z,19.20
2018-04-18T07:23:36.596Z,19.53
2018-04-18T07:26:02.332Z,19.37
2018-04-18T07:28:28.072Z,18.53
2018-04-18T07:30:53.816Z,19.23
2018-04-18T07:33:19.558Z,18.93
2018-04-18T07:35:45.312Z,16.73
2018-04-18T07:38:11.056Z,18.70
2018-04-18T07:40:36.791Z,18.80
2018-04-18T07:43:02.558Z,18.20
2018-04-18T07:45:28.304Z,16.87
2018-04-18T07:47:54.054Z,18.10
2018-04-18T07:50:19.803Z,17.73
2018-04-18T07:52:45.540Z,16.60
2018-04-18T07:55:11.294Z,18.20
2018-04-18T07:57:37.044Z,16.47
2018-04-18T08:00:02.811Z,17.67
2018-04-18T08:02:28.534Z,16.77
2018-04-18T08:04:54.292Z,15.83
2018-04-18T08:07:20.042Z,16.97
2018-04-18T08:09:45.798Z,14.23
2018-04-18T08:12:11.531Z,16.17
2018-04-18T08:14:37.292Z,13.13
2018-04-18T08:17:03.028Z,12.87
2018-04-18T08:19:28.789Z,12.43
2018-04-18T08:21:54.540Z,10.83
2018-04-18T08:24:20.304Z,11.53
2018-04-18T08:26:46.055Z,11.10
2018-04-18T08:29:11.813Z,10.23
2018-04-18T08:31:37.570Z,10.77
2018-04-18T08:34:03.372Z,9.60
2018-04-18T08:36:29.088Z,9.93
2018-04-18T08:38:54.828Z,11.33
2018-04-18T08:41:20.568Z,10.40
2018-04-18T08:43:46.320Z,10.40
2018-04-18T08:46:12.065Z,9.33
2018-04-18T08:48:37.820Z,8.60
2018-04-18T08:51:03.576Z,9.57
2018-04-18T08:53:29.336Z,10.17
2018-04-18T08:55:55.072Z,8.80
2018-04-18T08:58:20.836Z,8.70
2018-04-18T09:00:46.568Z,5.43
2018-04-18T09:03:12.316Z,5.00
2018-04-18T09:05:38.084Z,5.20
2018-04-18T09:08:03.849Z,6.23
2018-04-18T09:10:29.601Z,5.90
2018-04-18T09:12:55.349Z,5.30
2018-04-18T09:15:21.097Z,4.30
2018-04-18T09:17:46.830Z,4.33
2018-04-18T09:20:12.596Z,5.00
2018-04-18T09:22:38.344Z,4.67
2018-04-18T09:25:04.088Z,4.03
2018-04-18T09:27:29.821Z,3.47
2018-04-18T09:29:55.582Z,5.27
2018-04-18T09:32:21.320Z,5.47
2018-04-18T09:34:47.088Z,4.77
2018-04-18T09:37:12.836Z,4.80
2018-04-18T09:39:38.596Z,3.80
2018-04-18T09:42:04.340Z,4.00
2018-04-18T09:44:30.091Z,3.43
2018-04-18T09:46:55.835Z,3.90
2018-04-18T09:49:21.598Z,4.57
2018-04-18T09:51:47.333Z,3.93
2018-04-18T09:54:13.089Z,3.80
2018-04-18T09:56:38.826Z,4.07
2018-04-18T09:59:04.568Z,3.60
2018-04-18T10:01:36.373Z,3.43
2018-04-18T10:04:08.248Z,3.30
2018-04-18T10:06:33.988Z,3.67
2018-04-18T10:08:59.736Z,3.47
2018-04-18T10:11:25.481Z,4.10
2018-04-18T10:13:51.218Z,3.37
2018-04-18T10:16:17.016Z,4.23
2018-04-18T10:18:42.715Z,3.60
2018-04-18T10:21:08.481Z,4.17
2018-04-18T10:23:34.221Z,4.57
2018-04-18T10:25:59.964Z,4.40
2018-04-18T10:28:25.701Z,4.17
2018-04-18T10:30:51.453Z,2.90
2018-04-18T10:33:17.185Z,2.80
2018-04-18T10:35:42.931Z,2.20
2018-04-18T10:38:08.745Z,3.23
2018-04-18T10:40:34.434Z,3.63
2018-04-18T10:43:00.161Z,4.10
2018-04-18T10:45:25.927Z,3.57
2018-04-18T10:47:51.690Z,3.53
2018-04-18T10:50:17.428Z,4.27
2018-04-18T10:52:43.173Z,4.73
2018-04-18T10:55:08.927Z,5.43
2018-04-18T10:57:34.664Z,5.80
2018-04-18T11:00:00.405Z,6.03
2018-04-18T11:04:58.781Z,6.60
2018-04-18T11:07:24.538Z,6.17
2018-04-18T11:09:50.295Z,7.07
2018-04-18T11:12:16.032Z,7.53
2018-04-18T11:14:42.221Z,7.40
2018-04-18T11:17:07.996Z,5.00
2018-04-18T11:19:33.760Z,2.60
2018-04-18T11:21:59.488Z,3.07
2018-04-18T11:24:25.278Z,3.30
2018-04-18T11:26:51.026Z,3.63
2018-04-18T11:29:16.773Z,3.57
2018-04-18T11:31:42.726Z,4.37
2018-04-18T11:34:08.472Z,4.10
2018-04-18T11:36:34.216Z,3.87
2018-04-18T11:38:59.964Z,3.83
2018-04-18T11:41:25.708Z,3.30
2018-04-18T11:43:51.448Z,2.97
2018-04-18T11:46:17.208Z,2.80
2018-04-18T11:48:42.948Z,3.13
2018-04-18T11:51:08.734Z,3.70
2018-04-18T11:53:34.480Z,4.07
2018-04-18T11:56:00.234Z,4.10
2018-04-18T11:58:25.984Z,3.80
2018-04-18T12:00:51.735Z,3.83
2018-04-18T12:03:17.477Z,3.43
2018-04-18T12:05:43.228Z,3.70
2018-04-18T12:08:08.969Z,4.03
2018-04-18T12:10:34.720Z,4.40
2018-04-18T12:13:00.475Z,3.97
2018-04-18T12:15:26.237Z,4.50
2018-04-18T12:17:51.992Z,4.47
2018-04-18T12:20:17.759Z,4.03
2018-04-18T12:22:44.178Z,4.10
2018-04-18T12:25:11.001Z,3.60
2018-04-18T12:27:36.744Z,3.50
2018-04-18T12:30:02.549Z,3.63
2018-04-18T12:32:28.308Z,3.33
2018-04-18T12:34:54.052Z,3.03
2018-04-18T12:37:21.760Z,2.90
2018-04-18T12:39:47.503Z,2.80
2018-04-18T12:42:13.261Z,3.47
2018-04-18T12:44:39.000Z,3.80
2018-04-18T12:47:04.748Z,3.93
2018-04-18T12:49:31.537Z,3.73
2018-04-18T12:51:58.500Z,3.50
2018-04-18T12:54:25.150Z,3.97
2018-04-18T12:56:51.372Z,3.93
2018-04-18T12:59:17.117Z,3.73
2018-04-18T13:01:43.262Z,4.17
2018-04-18T13:04:09.076Z,4.20
2018-04-18T13:06:36.373Z,4.40
2018-04-18T13:09:03.157Z,3.50
2018-04-18T13:11:28.910Z,3.13
2018-04-18T13:13:54.652Z,4.27
2018-04-18T13:16:20.471Z,3.50
2018-04-18T13:18:46.238Z,3.53
2018-04-18T13:21:12.016Z,3.40
2018-04-18T13:23:37.752Z,3.07
2018-04-18T13:26:03.512Z,3.40
2018-04-18T13:28:29.263Z,3.10
2018-04-18T13:30:55.036Z,3.00
2018-04-18T13:33:20.784Z,3.13
2018-04-18T13:35:46.532Z,2.67
2018-04-18T13:38:12.288Z,2.83
2018-04-18T13:40:38.044Z,2.83
2018-04-18T13:43:03.801Z,2.60
2018-04-18T13:45:29.549Z,2.70
2018-04-18T13:47:55.330Z,2.70
2018-04-18T13:50:21.059Z,2.50
2018-04-18T13:52:46.809Z,2.50
2018-04-18T13:55:12.552Z,2.63
2018-04-18T13:57:38.304Z,2.60
2018-04-18T14:00:04.048Z,2.20
2018-04-18T14:02:29.798Z,2.60
2018-04-18T14:04:55.556Z,2.80
2018-04-18T14:07:21.305Z,2.63
2018-04-18T14:09:47.057Z,2.30
2018-04-18T14:12:12.823Z,2.50
2018-04-18T14:14:38.568Z,2.50
2018-04-18T14:17:04.356Z,2.60
2018-04-18T14:19:30.105Z,2.43
2018-04-18T14:21:55.853Z,2.20
2018-04-18T14:24:21.610Z,2.33
2018-04-18T14:26:47.360Z,3.03
2018-04-18T14:29:13.105Z,2.70
2018-04-18T14:31:38.854Z,2.87
2018-04-18T14:34:04.600Z,2.47
2018-04-18T14:36:30.349Z,2.33
2018-04-18T14:38:56.104Z,2.73
2018-04-18T14:41:21.845Z,3.27
2018-04-18T14:43:47.572Z,2.40
2018-04-18T14:46:13.328Z,2.40
2018-04-18T14:48:39.092Z,2.57
2018-04-18T14:51:04.848Z,2.57
2018-04-18T14:53:30.595Z,2.27
2018-04-18T14:55:56.348Z,2.37
2018-04-18T14:58:22.091Z,2.23
2018-04-18T15:00:47.841Z,2.53
2018-04-18T15:03:13.591Z,2.17
2018-04-18T15:08:11.897Z,1.90
2018-04-18T15:10:37.628Z,2.37
2018-04-18T15:13:03.384Z,2.30
2018-04-18T15:15:29.116Z,1.87
2018-04-18T15:17:54.860Z,1.97
2018-04-18T15:20:20.604Z,2.17
2018-04-18T15:22:46.375Z,2.33
2018-04-18T15:25:12.096Z,1.80
2018-04-18T15:27:37.839Z,6.73
2018-04-18T15:30:03.584Z,2.00
2018-04-18T15:32:29.341Z,2.10
2018-04-18T15:34:55.096Z,2.87
2018-04-18T15:37:20.844Z,2.70
2018-04-18T15:39:46.592Z,2.70
2018-04-18T15:42:12.344Z,2.70
2018-04-18T15:44:38.091Z,3.00
2018-04-18T15:47:03.841Z,2.33
2018-04-18T15:49:29.590Z,2.77
2018-04-18T15:51:55.352Z,2.70
2018-04-18T15:54:21.097Z,2.60
2018-04-18T15:56:46.847Z,2.83
2018-04-18T15:59:12.583Z,2.60
2018-04-18T16:01:38.323Z,2.60
2018-04-18T16:04:04.071Z,2.63
2018-04-18T16:06:29.800Z,2.67
2018-04-18T16:08:55.557Z,2.77
2018-04-18T16:11:21.303Z,2.83
2018-04-18T16:13:47.045Z,2.87
2018-04-18T16:16:12.791Z,2.97
2018-04-18T16:18:38.545Z,2.50
2018-04-18T16:21:04.280Z,2.50
2018-04-18T16:23:30.035Z,2.70
2018-04-18T16:25:55.772Z,2.50
2018-04-18T16:28:21.532Z,2.70
2018-04-18T16:30:47.270Z,3.13
2018-04-18T16:33:13.026Z,2.93
2018-04-18T16:35:38.772Z,2.83
2018-04-18T16:38:04.539Z,2.60
2018-04-18T16:40:30.289Z,2.90
2018-04-18T16:42:56.033Z,2.57
2018-04-18T16:45:21.787Z,2.27
2018-04-18T16:47:47.540Z,2.57
2018-04-18T16:50:13.300Z,2.47
2018-04-18T16:52:39.052Z,2.27
2018-04-18T16:55:04.784Z,2.60
2018-04-18T16:57:30.544Z,2.00
2018-04-18T16:59:56.278Z,2.43
2018-04-18T17:02:22.021Z,2.30
2018-04-18T17:04:47.769Z,2.13
2018-04-18T17:07:13.520Z,2.40
2018-04-18T17:09:39.274Z,2.30
2018-04-18T17:12:05.029Z,2.30
2018-04-18T17:14:30.775Z,2.43
2018-04-18T17:16:56.536Z,2.40
2018-04-18T17:19:22.280Z,2.20
2018-04-18T17:21:48.032Z,2.20
2018-04-18T17:24:13.813Z,2.30
2018-04-18T17:26:39.524Z,1.90
2018-04-18T17:29:05.281Z,2.37
2018-04-18T17:31:31.035Z,2.23
2018-04-18T17:33:56.791Z,2.30
2018-04-18T17:36:22.525Z,2.27
2018-04-18T17:38:48.283Z,2.20
2018-04-18T17:41:14.028Z,2.23
2018-04-18T17:43:39.764Z,2.20
2018-04-18T17:46:05.510Z,2.53
2018-04-18T17:48:31.259Z,2.27
2018-04-18T17:50:57.015Z,2.93
2018-04-18T17:53:22.775Z,2.60
2018-04-18T17:55:48.700Z,2.40
2018-04-18T17:58:14.465Z,2.17
2018-04-18T18:00:40.303Z,2.47
2018-04-18T18:03:06.060Z,2.00
2018-04-18T18:05:31.810Z,2.70
2018-04-18T18:07:57.540Z,2.83
2018-04-18T18:10:23.289Z,3.17
2018-04-18T18:12:49.032Z,3.37
2018-04-18T18:15:14.780Z,2.57
2018-04-18T18:17:40.524Z,2.53
2018-04-18T18:20:06.284Z,2.30
2018-04-18T18:22:32.025Z,2.90
2018-04-18T18:24:57.777Z,2.77
2018-04-18T18:27:23.529Z,4.10
2018-04-18T18:29:49.280Z,5.43
2018-04-18T18:32:15.030Z,7.67
2018-04-18T18:34:40.783Z,7.53
2018-04-18T18:37:06.524Z,6.90
2018-04-18T18:39:32.267Z,5.50
2018-04-18T18:41:58.005Z,5.00
2018-04-18T18:44:23.755Z,5.13
2018-04-18T18:46:49.489Z,4.63
2018-04-18T18:49:15.244Z,4.50
2018-04-18T18:51:40.979Z,4.07
2018-04-18T18:54:06.737Z,3.80
2018-04-18T18:56:32.480Z,3.50
2018-04-18T18:58:58.224Z,2.90
2018-04-18T19:01:23.959Z,3.20
2018-04-18T19:03:49.712Z,3.20
2018-04-18T19:06:15.464Z,2.73
2018-04-18T19:08:41.195Z,3.00
2018-04-18T19:11:06.968Z,2.80
2018-04-18T19:13:32.715Z,3.00
2018-04-18T19:15:58.465Z,3.10
2018-04-18T19:18:24.200Z,3.23
2018-04-18T19:20:49.956Z,3.00
2018-04-18T19:23:15.709Z,3.53
2018-04-18T19:25:41.460Z,3.73
2018-04-18T19:28:07.202Z,3.53
2018-04-18T19:30:32.962Z,4.10
2018-04-18T19:32:58.817Z,4.00
2018-04-18T19:35:24.567Z,4.20
2018-04-18T19:37:50.303Z,5.30
2018-04-18T19:40:16.129Z,7.90
2018-04-18T19:42:41.877Z,8.70
2018-04-18T19:45:07.633Z,8.67
2018-04-18T19:47:33.380Z,9.70
2018-04-18T19:49:59.148Z,9.80
2018-04-18T19:52:24.941Z,9.17
2018-04-18T19:54:50.686Z,9.03
2018-04-18T19:57:16.423Z,9.30
2018-04-18T19:59:42.193Z,9.50
2018-04-18T20:02:08.178Z,9.43
2018-04-18T20:04:33.908Z,9.03
2018-04-18T20:06:59.696Z,9.33
2018-04-18T20:09:25.562Z,9.50
2018-04-18T20:11:51.331Z,7.67
2018-04-18T20:14:17.064Z,8.70
2018-04-18T20:16:42.851Z,11.20
2018-04-18T20:19:08.882Z,10.27
2018-04-18T20:21:34.676Z,9.00
2018-04-18T20:24:00.420Z,8.40
2018-04-18T20:26:26.253Z,9.00
2018-04-18T20:28:52.004Z,8.30
2018-04-18T20:31:17.892Z,8.40
2018-04-18T20:33:43.756Z,7.80
2018-04-18T20:36:09.500Z,7.77
2018-04-18T20:38:35.240Z,7.70
2018-04-18T20:41:01.079Z,7.53
2018-04-18T20:43:26.840Z,6.93
2018-04-18T20:45:52.626Z,6.00
2018-04-18T20:48:18.343Z,6.77
2018-04-18T20:50:44.093Z,6.33
2018-04-18T20:53:09.981Z,5.90
2018-04-18T20:55:35.772Z,5.67
2018-04-18T21:00:34.069Z,7.10
2018-04-18T21:02:59.820Z,6.33
2018-04-18T21:05:25.576Z,5.50
2018-04-18T21:07:51.354Z,5.57
2018-04-18T21:10:17.121Z,5.93
2018-04-18T21:12:42.867Z,5.60
2018-04-18T21:15:08.596Z,6.60
2018-04-18T21:17:34.351Z,6.10
2018-04-18T21:20:00.095Z,5.70
2018-04-18T21:22:25.917Z,5.37
2018-04-18T21:24:51.811Z,5.50
2018-04-18T21:27:17.579Z,5.67
2018-04-18T21:29:43.332Z,5.80
2018-04-18T21:32:09.085Z,5.23
2018-04-18T21:34:34.838Z,6.17
2018-04-18T21:37:00.616Z,5.10
2018-04-18T21:39:26.359Z,6.60
2018-04-18T21:41:52.120Z,6.13
2018-04-18T21:44:17.876Z,5.33
2018-04-18T21:46:43.634Z,4.90
2018-04-18T21:49:09.397Z,5.50
2018-04-18T21:51:35.119Z,5.37
2018-04-18T21:54:00.864Z,5.23
2018-04-18T21:56:26.612Z,5.67
2018-04-18T21:58:52.399Z,5.90
2018-04-18T22:01:18.159Z,5.70
2018-04-18T22:03:43.909Z,6.17
2018-04-18T22:06:09.672Z,5.50
2018-04-18T22:08:35.424Z,5.07
2018-04-18T22:11:01.180Z,6.13
2018-04-18T22:13:26.935Z,5.80
2018-04-18T22:15:52.664Z,5.37
2018-04-18T22:18:18.408Z,5.40
2018-04-18T22:20:44.145Z,5.67
2018-04-18T22:23:09.896Z,5.83
2018-04-18T22:25:35.643Z,5.50
2018-04-18T22:28:01.372Z,5.87
2018-04-18T22:30:27.112Z,6.43
2018-04-18T22:32:52.857Z,5.73
2018-04-18T22:35:18.605Z,5.67
2018-04-18T22:37:44.340Z,5.90
2018-04-18T22:40:10.090Z,5.70
2018-04-18T22:42:35.846Z,5.47
2018-04-18T22:45:01.600Z,5.63
2018-04-18T22:47:27.338Z,5.40
2018-04-18T22:49:53.096Z,5.87
2018-04-18T22:52:18.838Z,6.33
2018-04-18T22:54:44.581Z,6.50
2018-04-18T22:57:10.316Z,6.20
2018-04-18T22:59:36.056Z,6.27
2018-04-18T23:02:01.799Z,6.00
2018-04-18T23:04:27.542Z,5.80
2018-04-18T23:06:53.280Z,5.90
2018-04-18T23:09:19.020Z,6.23
2018-04-18T23:11:44.782Z,6.53
2018-04-18T23:14:10.512Z,6.57
2018-04-18T23:16:36.249Z,6.47
2018-04-18T23:19:01.992Z,6.40
2018-04-18T23:21:27.761Z,6.80
2018-04-18T23:23:53.496Z,6.37
2018-04-18T23:26:19.245Z,7.00
2018-04-18T23:28:44.976Z,6.77
2018-04-18T23:31:10.735Z,6.93
2018-04-18T23:33:36.475Z,7.30
2018-04-18T23:36:02.226Z,8.20
2018-04-18T23:38:27.956Z,7.50
2018-04-18T23:40:53.696Z,7.63
2018-04-18T23:43:19.449Z,7.77
2018-04-18T23:45:45.197Z,8.37
2018-04-18T23:48:10.941Z,8.33
2018-04-18T23:50:36.692Z,8.77
2018-04-18T23:53:02.447Z,8.43
2018-04-18T23:55:28.185Z,8.17
2018-04-18T23:57:53.928Z,9.00
